Time;durP1;ratioP1;P1;durP2;ratioP2;P2;SDS_P1;SDS_P2;PMS_P1;PMS_P2;Temp;Humidity;BMP_temperature;BMP_pressure;BME280_temperature;BME280_humidity;BME280_pressure;Samples;Min_cycle;Max_cycle;Signal;HPM_P1;HPM_P2
2023/05/31 00:01:09;;;;;;;3.50;2.93;;;13.70;56.20;;;;;;6334369;27;20413;-81
2023/05/31 00:04:14;;;;;;;2.90;2.70;;;13.60;56.50;;;;;;6324078;27;20231;-83
2023/05/31 00:07:17;;;;;;;2.83;2.60;;;13.60;56.30;;;;;;6321690;27;20391;-85
2023/05/31 00:10:20;;;;;;;2.90;2.90;;;13.60;56.50;;;;;;6322307;27;20235;-84
2023/05/31 00:13:24;;;;;;;3.20;3.00;;;13.60;56.30;;;;;;6311390;27;20251;-82
2023/05/31 00:16:33;;;;;;;2.60;2.50;;;13.50;56.60;;;;;;6298387;27;20251;-84
2023/05/31 00:19:41;;;;;;;4.30;2.90;;;13.50;56.70;;;;;;6313628;27;20267;-85
2023/05/31 00:22:44;;;;;;;2.70;2.60;;;13.50;57.10;;;;;;6309441;27;20820;-82
2023/05/31 00:25:47;;;;;;;4.73;2.83;;;13.50;56.90;;;;;;6332561;28;20827;-83
2023/05/31 00:28:51;;;;;;;2.73;2.63;;;13.40;57.00;;;;;;6323236;27;20235;-86
2023/05/31 00:31:54;;;;;;;2.70;2.60;;;13.30;57.10;;;;;;6306777;27;20232;-85
2023/05/31 00:34:58;;;;;;;3.37;2.87;;;13.30;57.00;;;;;;6312909;27;20374;-85
2023/05/31 00:38:05;;;;;;;2.80;2.70;;;13.30;57.20;;;;;;6331106;27;20244;-82
2023/05/31 00:41:11;;;;;;;3.17;3.00;;;13.30;57.30;;;;;;6305184;28;20233;-83
2023/05/31 00:44:14;;;;;;;2.80;2.70;;;13.30;57.20;;;;;;6335157;27;20225;-84
2023/05/31 00:47:17;;;;;;;2.70;2.57;;;13.20;57.20;;;;;;6323067;27;20843;-81
2023/05/31 00:50:23;;;;;;;3.67;3.37;;;13.10;57.30;;;;;;6327422;27;20240;-83
2023/05/31 00:53:26;;;;;;;2.83;2.73;;;13.10;57.40;;;;;;6330556;27;20777;-84
2023/05/31 00:56:29;;;;;;;2.97;2.80;;;13.10;57.60;;;;;;6313261;27;20258;-82
2023/05/31 00:59:33;;;;;;;2.37;2.37;;;13.00;57.60;;;;;;6315454;27;20256;-85
2023/05/31 01:02:37;;;;;;;5.63;2.50;;;13.00;57.70;;;;;;6314185;28;20236;-82
2023/05/31 01:05:44;;;;;;;3.07;2.90;;;12.90;57.70;;;;;;6313459;27;20603;-84
2023/05/31 01:08:47;;;;;;;2.87;2.77;;;12.90;57.70;;;;;;6314958;27;20342;-83
2023/05/31 01:12:03;;;;;;;3.37;3.13;;;12.90;57.90;;;;;;6320137;27;20243;-85
2023/05/31 01:15:12;;;;;;;2.90;2.80;;;12.80;57.90;;;;;;6308472;27;20228;-82
2023/05/31 01:18:32;;;;;;;2.80;2.60;;;12.80;57.90;;;;;;6330395;27;20224;-83
2023/05/31 01:21:53;;;;;;;3.13;2.80;;;12.70;58.00;;;;;;6317571;27;20233;-82
2023/05/31 01:25:15;;;;;;;2.60;2.50;;;12.70;58.20;;;;;;6316161;28;20237;-83
2023/05/31 01:28:20;;;;;;;2.93;2.80;;;12.70;58.20;;;;;;6324350;27;20235;-83
2023/05/31 01:31:25;;;;;;;2.53;2.53;;;12.60;58.30;;;;;;6331439;27;20232;-85
2023/05/31 01:34:28;;;;;;;2.83;2.63;;;12.50;58.20;;;;;;6321472;27;20223;-81
2023/05/31 01:37:31;;;;;;;2.77;2.60;;;12.50;58.30;;;;;;6312607;28;20755;-85
2023/05/31 01:40:35;;;;;;;4.90;3.40;;;12.50;58.50;;;;;;6318167;27;20240;-83
2023/05/31 01:43:43;;;;;;;2.90;2.80;;;12.50;58.70;;;;;;6307393;27;20281;-82
2023/05/31 01:46:47;;;;;;;3.13;2.90;;;12.50;58.40;;;;;;6335905;27;20266;-83
2023/05/31 01:49:51;;;;;;;3.27;2.93;;;12.40;58.50;;;;;;6320984;27;20287;-85
2023/05/31 01:52:54;;;;;;;3.50;3.20;;;12.40;58.70;;;;;;6326209;27;20235;-85
2023/05/31 01:55:59;;;;;;;3.60;3.40;;;12.30;58.60;;;;;;6309954;28;20235;-86
2023/05/31 01:59:06;;;;;;;3.40;3.20;;;12.30;58.70;;;;;;6319495;27;20228;-85
2023/05/31 02:02:10;;;;;;;2.63;2.53;;;12.30;58.70;;;;;;6323374;27;20236;-82
2023/05/31 02:05:14;;;;;;;3.10;2.90;;;12.20;58.70;;;;;;6327477;27;20234;-84
2023/05/31 02:08:17;;;;;;;3.00;2.90;;;12.20;58.70;;;;;;6317689;27;20231;-83
2023/05/31 02:11:20;;;;;;;2.97;2.70;;;12.10;59.00;;;;;;6310736;27;20256;-86
2023/05/31 02:14:25;;;;;;;3.77;2.90;;;12.10;59.00;;;;;;6321051;27;20742;-81
2023/05/31 02:17:32;;;;;;;3.07;2.97;;;12.00;59.20;;;;;;6342828;27;20836;-84
2023/05/31 02:20:36;;;;;;;2.87;2.77;;;12.00;59.20;;;;;;6331070;27;20317;-83
2023/05/31 02:23:39;;;;;;;3.23;2.93;;;11.90;59.20;;;;;;6326102;27;20713;-84
2023/05/31 02:26:45;;;;;;;3.03;2.93;;;11.90;59.60;;;;;;6325290;27;20830;-83
2023/05/31 02:29:52;;;;;;;4.77;3.20;;;11.90;59.50;;;;;;6321116;27;20228;-82
2023/05/31 02:32:56;;;;;;;3.17;2.97;;;11.80;59.80;;;;;;6319748;27;20250;-83
2023/05/31 02:35:59;;;;;;;3.53;3.33;;;11.80;59.70;;;;;;6335386;27;20233;-82
2023/05/31 02:39:03;;;;;;;3.53;3.27;;;11.70;59.70;;;;;;6320622;28;20607;-85
2023/05/31 02:42:06;;;;;;;4.37;3.57;;;11.70;59.70;;;;;;6321311;27;20670;-82
2023/05/31 02:45:12;;;;;;;4.50;3.10;;;11.70;59.70;;;;;;6318737;27;20220;-82
2023/05/31 02:48:15;;;;;;;3.67;3.37;;;11.70;59.70;;;;;;6317137;27;20248;-83
2023/05/31 02:51:18;;;;;;;3.00;2.90;;;11.70;59.70;;;;;;6308826;28;20249;-80
2023/05/31 02:54:22;;;;;;;3.47;3.17;;;11.70;59.60;;;;;;6310572;28;20241;-83
2023/05/31 02:57:25;;;;;;;3.57;3.33;;;11.60;60.00;;;;;;6338601;27;20233;-84
2023/05/31 03:00:31;;;;;;;3.57;3.33;;;11.60;59.90;;;;;;6314038;27;20237;-86
2023/05/31 03:03:34;;;;;;;5.10;3.60;;;11.50;60.30;;;;;;6322823;27;20241;-84
2023/05/31 03:06:39;;;;;;;5.47;4.03;;;11.50;60.40;;;;;;6313213;27;20228;-82
2023/05/31 03:09:42;;;;;;;4.03;3.73;;;11.50;60.40;;;;;;6334072;27;20239;-81
2023/05/31 03:12:45;;;;;;;4.37;4.07;;;11.50;60.30;;;;;;6305214;28;20340;-81
2023/05/31 03:15:51;;;;;;;4.23;3.93;;;11.50;60.70;;;;;;6309931;27;20232;-80
2023/05/31 03:18:54;;;;;;;3.63;3.50;;;11.40;60.90;;;;;;6318987;27;20229;-83
2023/05/31 03:22:00;;;;;;;4.40;4.10;;;11.40;60.60;;;;;;6306627;27;20714;-83
2023/05/31 03:25:04;;;;;;;4.73;4.30;;;11.40;60.50;;;;;;6333182;27;20282;-81
2023/05/31 03:28:07;;;;;;;4.93;4.53;;;11.40;60.50;;;;;;6316635;27;20240;-80
2023/05/31 03:31:12;;;;;;;4.47;4.17;;;11.40;60.60;;;;;;6319194;28;20232;-78
2023/05/31 03:34:15;;;;;;;4.57;4.27;;;11.40;60.90;;;;;;6305881;28;20804;-80
2023/05/31 03:37:18;;;;;;;4.67;4.30;;;11.40;60.80;;;;;;6309822;27;20926;-80
2023/05/31 03:40:21;;;;;;;4.37;4.10;;;11.40;60.90;;;;;;6306419;27;20732;-81
2023/05/31 03:43:24;;;;;;;4.40;4.10;;;11.40;60.80;;;;;;6307774;27;20233;-80
2023/05/31 03:46:30;;;;;;;4.43;4.03;;;11.40;61.10;;;;;;6306460;28;20626;-80
2023/05/31 03:49:33;;;;;;;4.00;3.80;;;11.30;61.30;;;;;;6309403;28;20229;-80
2023/05/31 03:52:37;;;;;;;5.27;4.40;;;11.40;61.20;;;;;;6327051;27;20697;-76
2023/05/31 03:55:40;;;;;;;4.27;3.87;;;11.40;61.30;;;;;;6317728;27;20259;-77
2023/05/31 03:58:44;;;;;;;4.43;4.13;;;11.40;61.30;;;;;;6309074;27;20323;-79
2023/05/31 04:01:48;;;;;;;4.53;4.20;;;11.40;61.00;;;;;;6305560;27;20252;-79
2023/05/31 04:04:52;;;;;;;3.90;3.80;;;11.40;61.00;;;;;;6313925;27;20478;-78
2023/05/31 04:07:55;;;;;;;3.57;3.43;;;11.40;61.00;;;;;;6314305;27;20312;-80
2023/05/31 04:10:58;;;;;;;4.67;3.73;;;11.50;60.70;;;;;;6302464;27;20241;-81
2023/05/31 04:14:02;;;;;;;3.93;3.57;;;11.50;60.60;;;;;;6308406;27;20256;-82
2023/05/31 04:17:06;;;;;;;3.87;3.57;;;11.50;60.70;;;;;;6311924;27;20340;-80
2023/05/31 04:20:11;;;;;;;3.60;3.50;;;11.50;60.70;;;;;;6306324;27;20230;-79
2023/05/31 04:23:14;;;;;;;6.00;3.73;;;11.60;60.40;;;;;;6312922;27;20734;-78
2023/05/31 04:26:18;;;;;;;3.63;3.43;;;11.60;60.30;;;;;;6315054;27;20254;-81
2023/05/31 04:29:25;;;;;;;3.70;3.50;;;11.70;59.70;;;;;;6318226;27;20296;-81
2023/05/31 04:32:34;;;;;;;4.00;3.70;;;11.70;59.80;;;;;;6295512;27;20351;-80
2023/05/31 04:35:38;;;;;;;3.90;3.67;;;11.80;59.70;;;;;;6304595;28;21511;-81
2023/05/31 04:38:41;;;;;;;4.00;3.60;;;11.90;59.60;;;;;;6320878;27;20741;-76
2023/05/31 04:41:44;;;;;;;3.37;3.17;;;11.90;59.50;;;;;;6309697;28;20906;-83
2023/05/31 04:44:49;;;;;;;3.93;3.43;;;12.00;59.50;;;;;;6314772;27;20313;-82
2023/05/31 04:47:53;;;;;;;4.07;3.77;;;12.10;59.50;;;;;;6324405;27;20232;-81
2023/05/31 04:50:58;;;;;;;3.87;3.60;;;12.20;59.40;;;;;;6314922;27;20236;-79
2023/05/31 04:54:02;;;;;;;3.33;3.13;;;12.30;59.20;;;;;;6303970;28;20220;-77
2023/05/31 04:57:06;;;;;;;5.10;3.83;;;12.50;59.00;;;;;;6300468;27;20232;-79
2023/05/31 05:00:14;;;;;;;3.33;3.23;;;12.80;58.90;;;;;;6311610;28;20413;-81
2023/05/31 05:03:18;;;;;;;4.20;3.90;;;13.10;58.50;;;;;;6303072;28;20244;-78
2023/05/31 05:06:22;;;;;;;4.37;3.90;;;13.50;57.30;;;;;;6302463;28;20236;-78
2023/05/31 05:09:25;;;;;;;4.10;3.80;;;13.70;56.80;;;;;;6309816;27;20229;-79
2023/05/31 05:12:28;;;;;;;3.97;3.50;;;14.10;56.30;;;;;;6309992;27;20943;-82
2023/05/31 05:15:31;;;;;;;3.90;3.67;;;14.50;56.00;;;;;;6320423;27;20291;-81
2023/05/31 05:18:38;;;;;;;3.40;3.10;;;14.90;55.00;;;;;;6331022;27;20296;-79
2023/05/31 05:21:41;;;;;;;6.33;3.53;;;15.20;54.40;;;;;;6337150;27;20247;-78
2023/05/31 05:24:44;;;;;;;6.67;3.50;;;15.50;53.40;;;;;;6335862;27;20855;-80
2023/05/31 05:27:47;;;;;;;3.80;3.60;;;15.80;53.30;;;;;;6337840;27;20853;-75
2023/05/31 05:30:51;;;;;;;5.63;3.37;;;16.00;52.90;;;;;;6304046;28;20713;-79
2023/05/31 05:33:55;;;;;;;3.57;3.30;;;16.40;52.50;;;;;;6314290;28;20567;-80
2023/05/31 05:36:59;;;;;;;3.63;3.33;;;16.70;51.50;;;;;;6317255;27;20741;-77
2023/05/31 05:40:06;;;;;;;3.30;3.10;;;17.00;51.20;;;;;;6319452;28;20321;-78
2023/05/31 05:43:09;;;;;;;3.73;3.43;;;17.30;50.80;;;;;;6318488;27;20236;-78
2023/05/31 05:46:12;;;;;;;5.03;3.50;;;17.60;50.40;;;;;;6321429;27;20749;-80
2023/05/31 05:49:17;;;;;;;7.20;3.50;;;18.00;50.10;;;;;;6314563;27;20224;-79
2023/05/31 05:52:22;;;;;;;3.90;3.63;;;18.20;50.00;;;;;;6315613;27;20235;-79
2023/05/31 05:55:25;;;;;;;3.70;3.40;;;18.50;49.80;;;;;;6313899;27;20233;-78
2023/05/31 05:58:28;;;;;;;3.90;3.60;;;18.90;48.70;;;;;;6304320;27;20294;-78
2023/05/31 06:01:31;;;;;;;3.43;3.13;;;19.00;48.60;;;;;;6334297;27;20235;-79
2023/05/31 06:04:39;;;;;;;4.97;3.33;;;19.20;48.30;;;;;;6311908;27;20323;-79
2023/05/31 06:07:44;;;;;;;7.47;3.93;;;19.30;48.00;;;;;;6312119;28;20341;-78
2023/05/31 06:10:47;;;;;;;3.43;3.13;;;19.60;48.20;;;;;;6314402;27;20392;-79
2023/05/31 06:13:50;;;;;;;4.30;4.00;;;20.00;48.00;;;;;;6312819;27;20232;-81
2023/05/31 06:16:53;;;;;;;4.67;3.40;;;20.30;47.00;;;;;;6311849;27;20256;-81
2023/05/31 06:19:58;;;;;;;4.63;3.83;;;20.50;46.70;;;;;;6320031;27;20551;-80
2023/05/31 06:23:01;;;;;;;9.77;3.87;;;20.80;47.00;;;;;;6312110;27;20316;-80
2023/05/31 06:26:04;;;;;;;3.87;3.20;;;21.10;46.10;;;;;;6309036;27;20611;-79
2023/05/31 06:29:08;;;;;;;3.60;3.30;;;21.40;45.60;;;;;;6323008;27;20613;-80
2023/05/31 06:32:11;;;;;;;4.27;3.40;;;21.70;45.60;;;;;;6316343;27;20546;-81
2023/05/31 06:35:16;;;;;;;3.60;3.30;;;21.90;45.80;;;;;;6306089;27;20227;-79
2023/05/31 06:38:21;;;;;;;3.83;3.43;;;22.00;45.30;;;;;;6314971;27;20248;-79
2023/05/31 06:41:24;;;;;;;6.20;3.50;;;22.00;44.90;;;;;;6310767;28;20366;-82
2023/05/31 06:44:27;;;;;;;5.03;3.90;;;22.20;45.00;;;;;;6304157;28;20232;-81
2023/05/31 06:47:30;;;;;;;5.73;3.83;;;22.30;45.50;;;;;;6317755;27;20254;-79
2023/05/31 06:50:35;;;;;;;5.73;3.73;;;22.10;44.70;;;;;;6317409;27;20720;-79
2023/05/31 06:53:38;;;;;;;3.60;3.30;;;22.10;45.30;;;;;;6324921;27;20299;-82
2023/05/31 06:56:41;;;;;;;3.87;3.30;;;22.50;44.80;;;;;;6320062;27;20267;-81
2023/05/31 06:59:44;;;;;;;3.83;3.40;;;22.50;44.20;;;;;;6302656;27;20236;-81
2023/05/31 07:02:48;;;;;;;7.03;3.57;;;22.60;44.60;;;;;;6314870;28;20796;-82
2023/05/31 07:05:52;;;;;;;9.20;4.40;;;22.80;44.80;;;;;;6312332;27;20712;-80
2023/05/31 07:08:55;;;;;;;8.07;3.63;;;22.50;44.90;;;;;;6304489;27;20248;-81
2023/05/31 07:11:58;;;;;;;11.03;4.20;;;22.40;44.90;;;;;;6319440;27;20241;-81
2023/05/31 07:15:02;;;;;;;5.83;3.40;;;22.30;44.80;;;;;;6305063;27;20759;-79
2023/05/31 07:18:05;;;;;;;6.83;3.73;;;22.10;45.20;;;;;;6315143;28;20236;-81
2023/05/31 07:21:10;;;;;;;3.90;3.60;;;22.20;44.80;;;;;;6310719;27;20232;-80
2023/05/31 07:24:13;;;;;;;6.50;3.70;;;22.10;45.50;;;;;;6329084;27;20232;-81
2023/05/31 07:27:19;;;;;;;7.50;3.83;;;22.10;45.50;;;;;;6308638;27;20232;-79
2023/05/31 07:30:23;;;;;;;5.97;3.10;;;21.90;45.60;;;;;;6307777;27;20324;-79
2023/05/31 07:33:26;;;;;;;4.77;3.60;;;21.90;45.70;;;;;;6307705;27;20260;-78
2023/05/31 07:36:33;;;;;;;4.93;3.63;;;21.90;45.20;;;;;;6312400;28;20302;-80
2023/05/31 07:39:36;;;;;;;3.40;3.10;;;21.90;44.60;;;;;;6311567;27;20740;-78
2023/05/31 07:42:40;;;;;;;5.70;3.10;;;21.70;45.80;;;;;;6318846;28;20244;-80
2023/05/31 07:45:43;;;;;;;4.53;3.20;;;21.70;45.10;;;;;;6318115;27;20319;-79
2023/05/31 07:48:46;;;;;;;3.80;3.17;;;21.70;44.90;;;;;;6325186;27;20232;-80
2023/05/31 07:51:52;;;;;;;4.13;3.57;;;21.20;45.20;;;;;;6303929;27;20732;-81
2023/05/31 07:54:57;;;;;;;6.00;3.00;;;21.20;44.90;;;;;;6309326;28;20244;-80
2023/05/31 07:58:00;;;;;;;7.67;3.50;;;21.30;45.90;;;;;;6314108;27;20244;-79
2023/05/31 08:01:03;;;;;;;3.30;3.00;;;21.40;44.30;;;;;;6325184;27;20281;-80
2023/05/31 08:04:08;;;;;;;5.93;3.13;;;21.50;44.70;;;;;;6321922;27;20270;-81
2023/05/31 08:07:12;;;;;;;5.70;3.20;;;21.40;43.90;;;;;;6311919;27;20315;-80
2023/05/31 08:10:16;;;;;;;4.63;2.77;;;21.20;43.70;;;;;;6313352;27;20917;-79
2023/05/31 08:13:19;;;;;;;5.93;2.80;;;21.10;43.10;;;;;;6306392;27;20584;-81
2023/05/31 08:16:22;;;;;;;7.53;3.10;;;21.10;43.40;;;;;;6306734;27;20278;-80
2023/05/31 08:19:27;;;;;;;3.97;3.53;;;21.10;44.50;;;;;;6308183;28;20229;-80
2023/05/31 08:22:31;;;;;;;3.63;3.30;;;21.10;44.40;;;;;;6303927;28;20232;-81
2023/05/31 08:25:35;;;;;;;2.70;2.50;;;21.10;43.20;;;;;;6311576;27;20294;-80
2023/05/31 08:28:38;;;;;;;4.70;2.70;;;21.20;42.40;;;;;;6305603;27;20304;-79
2023/05/31 08:31:41;;;;;;;3.10;2.80;;;21.00;42.70;;;;;;6336843;27;20235;-78
2023/05/31 08:34:45;;;;;;;4.87;2.83;;;21.30;42.50;;;;;;6313704;28;20229;-81
2023/05/31 08:37:50;;;;;;;4.73;2.80;;;21.50;41.70;;;;;;6313583;27;20244;-80
2023/05/31 08:40:54;;;;;;;7.87;2.87;;;21.80;41.90;;;;;;6302381;28;20238;-78
2023/05/31 08:43:57;;;;;;;4.50;2.67;;;21.60;41.20;;;;;;6323891;27;20252;-81
2023/05/31 08:47:12;;;;;;;4.00;2.93;;;21.70;41.50;;;;;;6295449;28;20363;-81
2023/05/31 08:50:17;;;;;;;3.00;2.80;;;21.70;42.50;;;;;;6308935;27;20225;-77
2023/05/31 08:53:24;;;;;;;3.13;2.60;;;21.50;42.00;;;;;;6315099;27;20239;-81
2023/05/31 08:56:29;;;;;;;3.10;2.77;;;21.80;41.60;;;;;;6319652;27;20232;-80
2023/05/31 08:59:36;;;;;;;4.73;3.20;;;22.00;42.00;;;;;;6314507;27;20237;-81
2023/05/31 09:02:40;;;;;;;4.97;3.00;;;22.30;42.00;;;;;;6314098;28;20237;-80
2023/05/31 09:05:43;;;;;;;3.87;3.40;;;22.30;41.40;;;;;;6313318;27;20237;-80
2023/05/31 09:08:49;;;;;;;3.67;2.40;;;22.50;41.90;;;;;;6344189;27;20833;-81
2023/05/31 09:11:52;;;;;;;4.50;2.50;;;22.30;40.40;;;;;;6317982;27;20237;-80
2023/05/31 09:14:55;;;;;;;2.77;2.50;;;22.20;41.40;;;;;;6309240;27;20294;-78
2023/05/31 09:17:58;;;;;;;2.67;2.53;;;22.30;40.00;;;;;;6308496;27;20307;-81
2023/05/31 09:21:08;;;;;;;5.83;2.97;;;22.40;40.60;;;;;;6318805;27;20236;-82
2023/05/31 09:24:14;;;;;;;4.43;2.60;;;22.70;40.90;;;;;;6311550;27;20651;-77
2023/05/31 09:27:17;;;;;;;10.53;2.77;;;22.80;39.60;;;;;;6316674;27;20312;-81
2023/05/31 09:30:21;;;;;;;3.80;2.70;;;22.80;39.90;;;;;;6315149;28;20229;-78
2023/05/31 09:33:39;;;;;;;2.80;2.60;;;22.90;40.60;;;;;;6324905;27;20306;-81
2023/05/31 09:36:44;;;;;;;6.07;2.70;;;23.00;40.10;;;;;;6311807;28;20245;-80
2023/05/31 09:39:55;;;;;;;5.10;2.97;;;23.20;40.30;;;;;;6311277;28;20239;-80
2023/05/31 09:42:59;;;;;;;3.43;2.73;;;23.10;40.20;;;;;;6313791;27;20241;-80
2023/05/31 09:46:02;;;;;;;2.90;2.63;;;23.20;39.50;;;;;;6320010;28;20327;-81
2023/05/31 09:49:08;;;;;;;4.40;2.67;;;23.00;39.90;;;;;;6321005;27;20232;-81
2023/05/31 09:52:13;;;;;;;2.53;2.43;;;22.90;40.00;;;;;;6329240;27;20271;-79
2023/05/31 09:55:18;;;;;;;3.20;2.70;;;23.00;39.50;;;;;;6335207;27;20316;-77
2023/05/31 09:58:31;;;;;;;4.17;2.50;;;22.90;39.70;;;;;;6348500;27;20239;-79
2023/05/31 10:01:37;;;;;;;2.53;2.43;;;23.10;39.50;;;;;;6329090;28;20239;-80
2023/05/31 10:04:41;;;;;;;4.77;2.27;;;23.30;39.80;;;;;;6313940;27;20221;-80
2023/05/31 10:07:46;;;;;;;2.53;2.20;;;23.40;39.20;;;;;;6324657;27;20288;-82
2023/05/31 10:10:51;;;;;;;6.40;2.97;;;23.50;38.70;;;;;;6320288;27;20248;-80
2023/05/31 10:14:00;;;;;;;2.60;2.40;;;23.60;39.10;;;;;;6315034;27;20233;-80
2023/05/31 10:17:06;;;;;;;2.93;2.60;;;23.50;39.20;;;;;;6313843;27;20244;-82
2023/05/31 10:20:12;;;;;;;4.10;2.90;;;23.60;38.70;;;;;;6325095;27;20286;-81
2023/05/31 10:23:22;;;;;;;3.13;2.43;;;23.30;39.40;;;;;;6323578;27;20240;-81
2023/05/31 10:26:36;;;;;;;2.60;2.50;;;23.40;39.60;;;;;;6314640;27;20228;-79
2023/05/31 10:29:44;;;;;;;4.30;2.50;;;23.20;40.10;;;;;;6301237;27;20225;-81
2023/05/31 10:32:54;;;;;;;2.63;2.40;;;23.20;39.80;;;;;;6314047;28;20290;-82
2023/05/31 10:35:58;;;;;;;3.57;3.20;;;23.30;40.40;;;;;;6312329;28;20229;-79
2023/05/31 10:39:06;;;;;;;2.70;2.50;;;23.20;39.70;;;;;;6332225;27;20242;-84
2023/05/31 10:42:21;;;;;;;2.87;2.70;;;23.20;40.50;;;;;;6310977;27;20237;-80
2023/05/31 10:45:27;;;;;;;2.67;2.47;;;23.20;40.70;;;;;;6312974;27;20224;-80
2023/05/31 10:48:40;;;;;;;2.90;2.60;;;23.30;39.90;;;;;;6313225;27;20263;-79
2023/05/31 10:51:45;;;;;;;2.73;2.57;;;23.60;40.30;;;;;;6328696;27;20275;-78
2023/05/31 10:54:48;;;;;;;2.70;2.50;;;23.70;39.00;;;;;;6325511;27;20233;-79
2023/05/31 10:57:54;;;;;;;3.20;3.00;;;23.60;38.70;;;;;;6318501;27;20307;-82
2023/05/31 11:01:05;;;;;;;2.80;2.70;;;23.90;39.00;;;;;;6318130;27;20849;-80
2023/05/31 11:04:20;;;;;;;2.90;2.80;;;24.10;39.00;;;;;;6301431;27;20320;-80
2023/05/31 11:07:28;;;;;;;4.33;2.43;;;24.10;38.80;;;;;;6326613;27;20804;-80
2023/05/31 11:10:37;;;;;;;5.47;2.33;;;24.20;38.50;;;;;;6318026;28;20239;-80
2023/05/31 11:14:03;;;;;;;2.57;2.47;;;24.00;38.20;;;;;;6314342;27;20316;-80
2023/05/31 11:17:16;;;;;;;2.30;2.20;;;23.70;39.20;;;;;;6310119;28;20724;-79
2023/05/31 11:20:21;;;;;;;2.70;2.20;;;23.70;38.30;;;;;;6319149;27;20233;-83
2023/05/31 11:23:27;;;;;;;2.17;2.07;;;23.90;37.60;;;;;;6310982;27;20242;-79
2023/05/31 11:26:32;;;;;;;2.30;2.10;;;23.90;38.20;;;;;;6322470;27;20233;-81
2023/05/31 11:29:59;;;;;;;2.20;2.10;;;23.70;38.20;;;;;;6321217;27;20240;-78
2023/05/31 11:33:14;;;;;;;1.90;1.77;;;23.90;38.00;;;;;;6316912;27;20237;-81
2023/05/31 11:36:17;;;;;;;1.70;1.70;;;24.00;37.00;;;;;;6308667;27;20282;-83
2023/05/31 11:39:20;;;;;;;2.33;1.87;;;24.00;38.10;;;;;;6304879;27;20948;-80
2023/05/31 11:42:24;;;;;;;1.73;1.73;;;24.10;37.00;;;;;;6316157;27;20241;-83
2023/05/31 11:45:32;;;;;;;1.90;1.80;;;24.20;36.60;;;;;;6318881;27;20232;-82
2023/05/31 11:48:40;;;;;;;1.50;1.50;;;24.30;37.20;;;;;;6317911;27;20652;-81
2023/05/31 11:51:44;;;;;;;2.30;2.20;;;24.50;37.70;;;;;;6303213;27;20260;-80
2023/05/31 11:54:49;;;;;;;1.77;1.77;;;24.60;37.00;;;;;;6310636;27;20232;-80
2023/05/31 11:57:53;;;;;;;2.33;1.90;;;24.60;37.20;;;;;;6317227;27;20328;-82
2023/05/31 12:01:02;;;;;;;1.80;1.80;;;25.00;37.00;;;;;;6330944;27;20904;-81
2023/05/31 12:04:05;;;;;;;2.00;1.90;;;25.00;37.10;;;;;;6317488;27;20895;-81
2023/05/31 12:07:11;;;;;;;2.57;1.67;;;25.00;36.80;;;;;;6314628;28;20228;-81
2023/05/31 12:10:16;;;;;;;3.03;1.90;;;25.00;37.10;;;;;;6318281;27;20418;-78
2023/05/31 12:13:19;;;;;;;1.90;1.80;;;25.00;36.50;;;;;;6324464;27;20242;-81
2023/05/31 12:16:24;;;;;;;1.70;1.70;;;24.70;36.60;;;;;;6327452;27;20244;-83
2023/05/31 12:19:31;;;;;;;1.67;1.60;;;24.80;36.80;;;;;;6327556;27;20744;-79
2023/05/31 12:22:34;;;;;;;1.70;1.70;;;24.80;37.00;;;;;;6315866;28;20259;-81
2023/05/31 12:25:37;;;;;;;1.40;1.40;;;24.80;36.50;;;;;;6311287;27;20850;-80
2023/05/31 12:28:43;;;;;;;2.03;1.90;;;24.80;37.40;;;;;;6308365;27;20314;-80
2023/05/31 12:31:47;;;;;;;3.40;2.50;;;24.80;37.40;;;;;;6320047;27;20708;-82
2023/05/31 12:34:51;;;;;;;1.93;1.90;;;24.80;38.70;;;;;;6320685;27;20236;-80
2023/05/31 12:37:54;;;;;;;1.67;1.57;;;24.80;38.20;;;;;;6315003;27;20326;-81
2023/05/31 12:40:57;;;;;;;1.70;1.60;;;24.60;37.60;;;;;;6297487;27;20240;-80
2023/05/31 12:44:01;;;;;;;1.70;1.70;;;24.50;38.30;;;;;;6307225;28;20253;-83
2023/05/31 12:47:08;;;;;;;1.97;1.77;;;24.70;37.50;;;;;;6310204;27;20322;-82
2023/05/31 12:50:12;;;;;;;2.00;2.00;;;24.70;36.90;;;;;;6306711;27;20330;-83
2023/05/31 12:53:16;;;;;;;2.50;1.90;;;24.80;37.10;;;;;;6308015;27;20323;-80
2023/05/31 12:56:23;;;;;;;2.20;1.90;;;25.00;37.50;;;;;;6316485;27;20261;-80
2023/05/31 12:59:36;;;;;;;1.77;1.77;;;25.20;36.60;;;;;;6308191;27;20256;-80
2023/05/31 13:02:41;;;;;;;1.97;1.97;;;25.30;37.50;;;;;;6313154;28;20277;-80
2023/05/31 13:05:45;;;;;;;2.00;1.87;;;25.50;36.60;;;;;;6308543;27;20235;-79
2023/05/31 13:08:48;;;;;;;1.73;1.73;;;25.60;36.20;;;;;;6308743;28;20225;-80
2023/05/31 13:11:52;;;;;;;1.67;1.67;;;25.60;35.40;;;;;;6315699;27;20228;-80
2023/05/31 13:14:55;;;;;;;1.70;1.70;;;25.60;35.70;;;;;;6307546;27;20235;-82
2023/05/31 13:18:00;;;;;;;2.30;2.20;;;25.80;36.00;;;;;;6327724;27;20308;-81
2023/05/31 13:21:03;;;;;;;1.90;1.90;;;26.00;35.40;;;;;;6317621;27;20237;-82
2023/05/31 13:24:08;;;;;;;1.60;1.60;;;26.00;34.90;;;;;;6315399;27;20232;-81
2023/05/31 13:27:11;;;;;;;1.80;1.80;;;26.00;35.10;;;;;;6327037;27;20228;-78
2023/05/31 13:30:15;;;;;;;2.13;2.00;;;26.00;34.70;;;;;;6302808;27;20238;-82
2023/05/31 13:33:19;;;;;;;2.13;2.03;;;25.80;34.70;;;;;;6309512;27;20237;-80
2023/05/31 13:36:23;;;;;;;2.30;2.10;;;25.60;34.70;;;;;;6311016;27;20241;-82
2023/05/31 13:39:27;;;;;;;1.60;1.60;;;25.50;34.70;;;;;;6309368;27;20232;-77
2023/05/31 13:42:30;;;;;;;1.80;1.60;;;25.40;35.20;;;;;;6324400;27;21770;-79
2023/05/31 13:45:33;;;;;;;2.23;2.13;;;25.50;34.80;;;;;;6320871;27;20260;-79
2023/05/31 13:48:38;;;;;;;1.67;1.67;;;25.50;34.80;;;;;;6322620;27;20298;-79
2023/05/31 13:51:41;;;;;;;2.03;1.83;;;25.60;34.00;;;;;;6313909;27;20237;-80
2023/05/31 13:54:44;;;;;;;1.80;1.70;;;25.40;34.70;;;;;;6312031;27;20739;-81
2023/05/31 13:57:47;;;;;;;1.80;1.80;;;25.40;34.20;;;;;;6316790;28;20233;-81
2023/05/31 14:00:51;;;;;;;1.87;1.80;;;25.40;34.40;;;;;;6320725;27;20236;-79
2023/05/31 14:03:59;;;;;;;1.70;1.60;;;25.50;34.60;;;;;;6333027;27;20691;-79
2023/05/31 14:07:03;;;;;;;2.00;2.00;;;25.80;35.00;;;;;;6312797;28;20251;-81
2023/05/31 14:10:07;;;;;;;1.80;1.80;;;25.60;34.70;;;;;;6323253;27;20232;-79
2023/05/31 14:13:12;;;;;;;2.13;2.03;;;25.80;34.80;;;;;;6312449;27;20245;-79
2023/05/31 14:16:16;;;;;;;2.10;2.10;;;25.70;34.70;;;;;;6315716;27;20232;-81
2023/05/31 14:19:21;;;;;;;2.40;2.17;;;25.70;34.70;;;;;;6318454;27;20244;-78
2023/05/31 14:22:24;;;;;;;2.93;2.30;;;25.80;34.10;;;;;;6310847;27;20241;-76
2023/05/31 14:25:27;;;;;;;2.10;2.00;;;25.60;33.70;;;;;;6315857;27;20259;-77
2023/05/31 14:28:30;;;;;;;2.10;2.00;;;25.60;34.20;;;;;;6308114;28;20240;-77
2023/05/31 14:31:36;;;;;;;2.73;1.97;;;25.80;34.00;;;;;;6316434;27;20245;-76
2023/05/31 14:34:41;;;;;;;2.33;2.23;;;25.90;33.80;;;;;;6312035;27;20227;-79
2023/05/31 14:37:44;;;;;;;2.13;2.13;;;26.00;33.90;;;;;;6316130;27;20830;-77
2023/05/31 14:41:07;;;;;;;3.40;2.10;;;26.00;34.20;;;;;;6316180;27;20629;-78
2023/05/31 14:44:10;;;;;;;1.80;1.73;;;25.80;34.40;;;;;;6315096;27;20390;-78
2023/05/31 14:47:14;;;;;;;2.40;2.40;;;25.80;33.90;;;;;;6318010;27;20321;-78
2023/05/31 14:50:18;;;;;;;2.03;2.03;;;25.80;33.50;;;;;;6307092;27;20734;-77
2023/05/31 14:53:21;;;;;;;3.20;1.97;;;25.70;34.10;;;;;;6314281;27;20791;-77
2023/05/31 14:56:26;;;;;;;2.40;2.30;;;25.80;34.00;;;;;;6310922;27;20236;-76
2023/05/31 14:59:29;;;;;;;2.00;1.97;;;26.00;34.00;;;;;;6308466;27;20335;-76
2023/05/31 15:02:32;;;;;;;2.17;2.07;;;25.90;34.10;;;;;;6312995;27;20237;-75
2023/05/31 15:05:37;;;;;;;1.80;1.80;;;26.10;34.10;;;;;;6328481;27;20253;-77
2023/05/31 15:08:40;;;;;;;3.90;2.40;;;26.00;34.10;;;;;;6345813;27;20329;-78
2023/05/31 15:11:43;;;;;;;2.50;1.80;;;26.00;33.40;;;;;;6341334;27;20647;-75
2023/05/31 15:14:46;;;;;;;2.20;2.10;;;26.00;33.60;;;;;;6334508;27;20228;-77
2023/05/31 15:17:49;;;;;;;3.20;2.20;;;26.10;33.70;;;;;;6342666;27;20787;-78
2023/05/31 15:20:54;;;;;;;1.90;1.90;;;26.20;34.00;;;;;;6324330;27;20232;-77
2023/05/31 15:23:57;;;;;;;2.30;2.20;;;26.20;33.90;;;;;;6335921;27;20232;-76
2023/05/31 15:27:00;;;;;;;4.70;2.33;;;26.20;33.60;;;;;;6329015;27;20328;-73
2023/05/31 15:30:05;;;;;;;2.03;1.87;;;26.00;34.10;;;;;;6334830;27;20292;-76
2023/05/31 15:33:08;;;;;;;2.60;2.53;;;26.10;34.70;;;;;;6331414;27;20232;-75
2023/05/31 15:36:12;;;;;;;2.50;2.40;;;26.20;34.80;;;;;;6333628;27;20317;-77
2023/05/31 15:39:17;;;;;;;2.10;2.10;;;26.40;34.80;;;;;;6326368;27;20235;-77
2023/05/31 15:42:20;;;;;;;2.37;2.30;;;26.60;34.90;;;;;;6334625;27;20742;-77
2023/05/31 15:45:23;;;;;;;2.00;1.90;;;26.60;34.70;;;;;;6327497;27;20256;-77
2023/05/31 15:48:26;;;;;;;3.57;3.47;;;26.60;34.70;;;;;;6334572;27;20630;-79
2023/05/31 15:51:31;;;;;;;3.30;2.97;;;26.50;35.20;;;;;;6352780;27;20259;-80
2023/05/31 15:54:35;;;;;;;2.07;1.97;;;26.60;35.00;;;;;;6332002;27;20228;-75
2023/05/31 15:57:38;;;;;;;2.40;2.30;;;26.50;34.80;;;;;;6333673;27;20231;-79
2023/05/31 16:00:43;;;;;;;1.87;1.87;;;26.30;35.20;;;;;;6335180;27;20250;-79
2023/05/31 16:03:46;;;;;;;2.30;2.10;;;26.20;35.00;;;;;;6347545;27;20234;-79